Tiempo atmosférico en la estación meteorológica de Colmenar Viejo, Madrid (1004 m.)

Fecha
DESCASC
Temp. máxima en grados centígrados (hora)
DESCASC
Temp. mínima en grados centígrados (hora)
DESCASC
Temp. media en grados centígrados
DESCASC
Racha de viento máxima en m/sg (hora)
DESCASC
Velocidad máxima media en intervalos de 10 minutos(hora)
DESCASC
Precipitaciones diarias en mm
DESCASC
Precipitaciones de 00:00 a 06:00 en mm
DESCASC
Precipitaciones de 06:00 a 12:00 en mm
DESCASC
Precipitaciones de 12:00 a 18:00 en mm
DESCASC
Precipitaciones de 18:00 a 24:00 en mm
DESCASC
23-11-2017 14 (14:40) 7.1 (08:20) 10.5 9.44 (13:20) 3.61 (15:20) 0.2 0 0.1 0 0.1
22-11-2017 14.9 (15:20) 4.9 (08:20) 9.9 8.61 (14:30) 3.89 (16:20) 0 0 0 0 0
21-11-2017 15.2 (15:40) 5.8 (08:10) 10.5 9.44 (14:00) 1.94 (13:00) 0 0 0 0 0
20-11-2017 15.5 (15:50) 6.9 (07:30) 11.2 9.17 (12:10) 2.78 (12:40) 0 0 0 0 0
19-11-2017 16.1 (15:20) 6.6 (00:00) 11.4 3.61 (14:30) 2.22 (03:10) 0 0 0 0 0
18-11-2017 17 (14:50) 8 (00:00) 12.5 4.44 (11:40) 2.5 (13:00) 0 0 0 0 0
17-11-2017 16.3 (14:30) 7.8 (00:00) 12 10.56 (10:50) 2.22 (14:30) 0 0 0 0 0
16-11-2017 16.8 (14:50) 6 (00:00) 11.4 8.89 (13:00) 2.5 (15:40) 0 0 0 0 0
15-11-2017 13.2 (15:40) 3.1 (00:00) 8.1 6.39 (09:50) 1.94 (16:00) 0 0 0 0 0
14-11-2017 12.5 (14:50) 0.8 (00:00) 6.7 8.33 (11:40) 2.5 (13:00) 0 0 0 0 0
13-11-2017 10.3 (11:40) 2.5 (00:00) 6.4 13.33 (13:00) 7.22 (12:40) 0 0 0 0 0
12-11-2017 16.7 (15:50) 5.5 (00:00) 11.1 9.72 (16:30) 4.72 (16:20) 0 0 0 0 0
11-11-2017 16.1 (15:00) 4.6 (00:00) 10.4 4.17 (15:50) 2.22 (15:40) 0 0 0 0 0
10-11-2017 14.7 (13:20) 4.2 (00:00) 9.4 10.83 (16:00) 5 (13:00) 0 0 0 0 0
09-11-2017 9.9 (14:30) 1.9 (00:00) 5.9 15 (08:00) 7.78 (08:00) 0 0 0 0 0
08-11-2017 10.6 (14:20) 2.5 (00:00) 6.6 12.22 (19:10) 6.11 (09:50) 0 0 0 0 0
07-11-2017 13.9 (16:00) 1.7 (00:00) 7.8 10.28 (09:40) 3.06 (10:10) 0 0 0 0 0
06-11-2017 12.3 (14:50) 3.9 (00:00) 8.1 10.83 (10:00) 6.11 (05:40) 0 0 0 0 0
05-11-2017 12.8 (14:40) 6 (00:00) 9.4 11.94 (12:40) 5.83 (12:10) 2.2 0.7 0.7 0.5 0.3
04-11-2017 12.8 (15:30) 7.6 (00:00) 10.2 8.33 (07:00) 3.89 (07:00) 8 3.4 2.2 1.6 0.8
03-11-2017 15.7 (16:00) 9 (00:00) 12.3 11.94 (18:20) 4.72 (18:20) 6.8 0.1 0.7 0 6
02-11-2017 14.2 (15:20) 10.3 (05:30) 12.3 7.22 (11:30) 2.5 (10:40) 0 0 0 0 0
01-11-2017 16.1 (14:50) 8.6 (00:00) 12.4 5 (14:20) 2.78 (02:20) 0 0 0 0 0
31-10-2017 16.2 (15:40) 6.9 (00:00) 11.6 7.78 (12:40) 3.33 (01:50) 0 0 0 0 0
30-10-2017 18.4 (16:30) 6.3 (00:00) 12.3 8.06 (12:00) 3.61 (21:20) 0 0 0 0 0
29-10-2017 20.7 (16:40) 8.9 (00:00) 14.8 4.72 (14:00) 2.22 (13:00) 0 0 0 0 0
28-10-2017 20.1 (16:10) 9.7 (00:00) 14.9 5.83 (22:30) 3.61 (22:40) 0 0 0 0 0
27-10-2017 25.3 (15:00) 14 (00:00) 19.6 11.67 (14:50) 5.83 (16:10) 0 0 0 0 0
26-10-2017 24.3 (16:40) 13.3 (00:00) 18.8 9.44 (12:50) 2.78 (12:20) 0 0 0 0 0
25-10-2017 23 (16:40) 13 (00:00) 18 9.17 (12:20) 2.5 (01:40) 0 0 0 0 0

Gráficas

Temp. máximas Temp. mínimas Temp. medias Precipitaciones Rachas de viento máximas Velocidades máximas media en intervalos de 10 minutos

Datos horarios

Fecha y hora oficial Temperatura (ºC) Velocidad del viento (km/h) Dirección del viento Racha (km/h) Dirección de racha Precipitación (mm) Presión (hPa) Tendencia (hPa) Humedad (%)
2017-11-23 23:00:00 9.6 4 Noroeste 10 Oeste 0.1 906 0.1 52
2017-11-23 22:00:00 10.3 3 Oeste 7 Oeste 0 906.3 1.1 47
2017-11-23 21:00:00 9.9 5 Oeste 27 Sudeste 0 906.3 1.3 47
2017-11-23 20:00:00 10.1 0 Calma 21 Sur 0 905.9 0.9 46
2017-11-23 19:00:00 10.2 5 Sudoeste 10 Sudoeste 0 905.2 0.3 46
2017-11-23 18:00:00 10.9 5 Sudoeste 16 Sudoeste 0 905 0.4 45
2017-11-23 17:00:00 11.9 10 Sudoeste 18 Sudoeste 0 905 0.2 44
2017-11-23 16:00:00 13 8 Sur 26 Sudoeste 0 904.9 -0.2 42
2017-11-23 15:00:00 13.7 11 Sudoeste 20 Sudoeste 0 904.6 -0.8 42
2017-11-23 14:00:00 13 9 Sur 34 Sudeste 0 904.8 -0.2 41
2017-11-23 13:00:00 10.8 8 Sur 33 Sudeste 0 905.1 0.4 43
2017-11-23 12:00:00 10 5 Sur 9 Sur 0.1 905.4 1.7 45
2017-11-23 11:00:00 9.2 6 Sudeste 13 Sur 0 905 1.7 45
2017-11-23 10:00:00 8.3 0 Calma 19 Sudeste 0 904.7 2.3 45
2017-11-23 09:00:00 7.6 4 Sudeste 9 Noroeste 0 903.7 1.7 46
2017-11-23 08:00:00 7.3 5 Sur 9 Sur 0 903.3 1.5 46
2017-11-23 07:00:00 7.6 6 Sudeste 10 Sudeste 0 902.4 0.7 45
2017-11-23 06:00:00 8.3 5 Sur 9 Sur 0 902 0.2 45
2017-11-23 05:00:00 8.7 2 Sudeste 10 Sudeste 0 901.8 0.4 44
2017-11-23 04:00:00 8.8 6 Este 8 Este 0 901.7 0.2 45
2017-11-23 03:00:00 8.8 4 Sudeste 21 Sur 0 901.8 0.2 44
2017-11-23 02:00:00 9.1 6 Sur 10 Sudoeste 0 901.4 -0.4 41
2017-11-23 01:00:00 9.8 6 Oeste 11 Oeste 0 901.5 0 40
2017-11-23 00:00:00 10.2 7 Sudoeste 11 Sudoeste 0 901.6 0.3 40
2017-11-22 23:00:00 10.6 6 Sudoeste 12 Oeste 0 901.8 0.8 40
2017-11-22 22:00:00 9.5 7 Oeste 11 Oeste 0 901.5 0.7 43
2017-11-22 21:00:00 9.6 4 Oeste 8 Oeste 0 901.3 0.5 42
2017-11-22 20:00:00 9.6 4 Oeste 14 Oeste 0 901 0 42
2017-11-22 19:00:00 9.6 4 Oeste 15 Sudoeste 0 900.8 0 42
2017-11-22 18:00:00 11.1 10 Sudoeste 20 Sudoeste 0 900.8 -0.2 40
2017-11-22 17:00:00 12.5 12 Sudoeste 25 Sudoeste 0 901 -0.7 38
2017-11-22 16:00:00 14 10 Sudoeste 20 Sudoeste 0 900.8 -1.5 37
2017-11-22 15:00:00 14.5 8 Sudoeste 31 Sudeste 0 901 -2.2 37
2017-11-22 14:00:00 13.8 8 Sur 14 Sur 0 901.7 -1.7 39
2017-11-22 13:00:00 13.3 6 Sur 22 Sudeste 0 902.3 -1.1 40
2017-11-22 12:00:00 12.5 6 Sur 18 Sudeste 0 903.2 0 42
2017-11-22 11:00:00 12 4 Este 9 Sudeste 0 903.4 0.3 45
2017-11-22 10:00:00 9.4 0 Calma 10 Noroeste 0 903.4 0.4 47
2017-11-22 09:00:00 6.6 5 Norte 8 Norte 0 903.2 0 51
2017-11-22 08:00:00 5.2 0 Calma 6 Este 0 903.1 -0.3 53
2017-11-22 07:00:00 6.3 3 Sudeste 6 Sudeste 0 903 -0.7 51
2017-11-22 06:00:00 6.4 0 Calma 0 Calma 0 903.2 -0.9 50
2017-11-22 05:00:00 6.7 0 Calma 4 Este 0 903.4 -1.3 49
2017-11-22 04:00:00 7.7 0 Calma 4 Norte 0 903.7 -1.6 48
2017-11-22 03:00:00 7.4 0 Calma 3 Noroeste 0 904.1 -1.4 48
2017-11-22 02:00:00 7.5 0 Calma 5 Noroeste 0 904.7 -1 48
2017-11-22 01:00:00 7.7 0 Calma 4 Sudoeste 0 905.3 -0.3 47
2017-11-22 00:00:00 7.6 0 Calma 6 Oeste 0 905.5 -0.5 48
2017-11-21 23:00:00 8.7 3 Sudoeste 6 Sudoeste 0 905.7 -0.2 44
2017-11-21 22:00:00 9 0 Calma 4 Oeste 0 905.6 -0.6 45
2017-11-21 21:00:00 8.7 4 Noroeste 7 Norte 0 906 0 44
2017-11-21 20:00:00 9.6 4 Norte 16 Sur 0 905.9 -0.1 42
2017-11-21 19:00:00 10.6 3 Sudeste 10 Sudeste 0 906.2 0.1 41
2017-11-21 18:00:00 12.1 3 Sudoeste 9 Sur 0 906 -0.2 38
2017-11-21 17:00:00 14.3 4 Sudoeste 11 Sudoeste 0 906 -0.9 37
2017-11-21 16:00:00 15 6 Sur 12 Sudeste 0 906.1 -1.4 37
2017-11-21 15:00:00 14.9 6 Sur 18 Este 0 906.2 -2.2 38
2017-11-21 14:00:00 14 6 Sudeste 34 Sudeste 0 906.9 -1.5 40
2017-11-21 13:00:00 13.4 7 Sudeste 30 Sudeste 0 907.5 -1 41
2017-11-21 12:00:00 12.4 6 Sudeste 21 Sudeste 0 908.4 0 42
2017-11-21 11:00:00 12.4 3 Este 8 Sudeste 0 908.4 0.6 45
2017-11-21 10:00:00 10.8 2 Este 5 Sur 0 908.5 0.8 46
2017-11-21 09:00:00 7.6 0 Calma 4 Sudeste 0 908.4 0.7 51
2017-11-21 08:00:00 6.1 2 Este 13 Este 0 907.8 0.2 53
2017-11-21 07:00:00 6.8 0 Calma 3 Sudeste 0 907.7 -0.2 51
2017-11-21 06:00:00 7.2 0 Calma 3 Nordeste 0 907.7 -0.6 50
2017-11-21 05:00:00 7.4 0 Calma 0 Calma 0 907.6 -0.8 49
2017-11-21 04:00:00 7.7 3 Este 4 Este 0 907.9 -0.5 48
2017-11-21 03:00:00 7.8 0 Calma 3 Nordeste 0 908.3 -0.3 47
2017-11-21 02:00:00 8 0 Calma 3 Sur 0 908.4 -0.4 46
2017-11-21 01:00:00 8.7 0 Calma 3 Sudoeste 0 908.4 -0.5 45
2017-11-21 00:00:00 9.2 3 Sudoeste 4 Sudoeste 0 908.6 -0.5 44
2017-11-20 23:00:00 9.4 3 Noroeste 7 Norte 0 908.8 0.2 44
2017-11-20 22:00:00 9.6 5 Noroeste 12 Sur 0 908.9 0.7 42
2017-11-20 21:00:00 10.7 3 Nordeste 21 Sudeste 0 909.1 1.3 41
2017-11-20 20:00:00 10.5 4 Sudeste 14 Este 0 908.6 0.8 41
2017-11-20 19:00:00 10.9 3 Sur 5 Sur 0 908.2 0.3 39
2017-11-20 18:00:00 12.3 4 Sur 8 Sudeste 0 907.8 -0.3 38
2017-11-20 17:00:00 14.8 3 Sur 10 Sur 0 907.8 -0.8 35
2017-11-20 16:00:00 15.3 5 Sur 13 Sur 0 907.9 -1.1 36
2017-11-20 15:00:00 14.6 5 Sur 14 Sudeste 0 908.1 -1.3 36
2017-11-20 14:00:00 13.7 7 Sudeste 27 Sudeste 0 908.6 -0.9 37
2017-11-20 13:00:00 12.9 8 Sudeste 33 Este 0 909 -0.2 38
2017-11-20 12:00:00 12.8 6 Sur 16 Sudeste 0 909.4 0.6 38
2017-11-20 11:00:00 12.9 3 Sudeste 8 Sudeste 0 909.5 0.9 39
2017-11-20 10:00:00 10.9 0 Calma 6 Sudoeste 0 909.2 0.9 41
2017-11-20 09:00:00 8.1 3 Noroeste 5 Noroeste 0 908.8 0.7 44
2017-11-20 08:00:00 7.3 3 Noroeste 5 Noroeste 0 908.6 0.7 46
2017-11-20 07:00:00 7.5 3 Nordeste 4 Nordeste 0 908.3 0.2 46
2017-11-20 06:00:00 7.5 3 Sur 4 Sur 0 908.1 0.1 45
2017-11-20 05:00:00 7.8 0 Calma 6 Nordeste 0 907.9 -0.3 45
2017-11-20 04:00:00 8 2 Sudeste 4 Sur 0 908.1 -0.2 44
2017-11-20 03:00:00 8.8 0 Calma 4 Este 0 908 -0.4 43
2017-11-20 02:00:00 8.6 2 Oeste 4 Oeste 0 908.2 -0.2 41
2017-11-20 01:00:00 8.9 4 Noroeste 6 Noroeste 0 908.3 -0.1 42
2017-11-20 00:00:00 8.5 4 Noroeste 7 Noroeste 0 908.4 0.4 42
2017-11-19 23:00:00 9.4 5 Noroeste 9 Norte 0 908.4 0.5 42
2017-11-19 22:00:00 9.5 5 Noroeste 10 Norte 0 908.4 0.8 42
2017-11-19 21:00:00 9.7 4 Noroeste 6 Noroeste 0 908 0.9 41
2017-11-19 20:00:00 10.4 0 Calma 3 Sudeste 0 907.9 1 39
2017-11-19 19:00:00 10.8 0 Calma 6 Sudeste 0 907.6 0.8 39
2017-11-19 18:00:00 12.8 4 Sudeste 7 Sur 0 907.1 0.3 35
2017-11-19 17:00:00 15.1 3 Sudoeste 11 Sur 0 906.9 -0.1 33
2017-11-19 16:00:00 15.4 7 Sur 12 Sur 0 906.8 -0.9 33
2017-11-19 15:00:00 15.9 4 Sur 13 Sur 0 906.8 -1.2 34
2017-11-19 14:00:00 14.9 3 Sur 11 Sudoeste 0 907 -0.9 36
2017-11-19 13:00:00 14.1 5 Sur 12 Sur 0 907.7 -0.1 37
2017-11-19 12:00:00 13.9 3 Sur 10 Sudeste 0 908 0.8 38
2017-11-19 11:00:00 13.1 2 Este 8 Sudeste 0 907.9 1 37
2017-11-19 10:00:00 11.2 2 Este 6 Este 0 907.8 1 41
2017-11-19 09:00:00 8.8 0 Calma 5 Nordeste 0 907.2 0.8 42
2017-11-19 08:00:00 6.7 5 Norte 8 Norte 0 906.9 0.6 45
2017-11-19 07:00:00 7.9 2 Norte 6 Norte 0 906.8 0.3 44
2017-11-19 06:00:00 7.6 6 Norte 10 Norte 0 906.4 -0.2 45
2017-11-19 05:00:00 7.8 7 Norte 12 Noroeste 0 906.3 -0.1 46
2017-11-19 04:00:00 7.5 5 Norte 11 Noroeste 0 906.5 -0.1 47
2017-11-19 03:00:00 6.9 5 Noroeste 10 Noroeste 0 906.6 -0.2 49
2017-11-19 02:00:00 8.4 0 Calma 6 Norte 0 906.4 -0.3 46
2017-11-19 01:00:00 8.3 5 Noroeste 11 Nordeste 0 906.6 0.1 47
2017-11-19 00:00:00 8.8 4 Nordeste 10 Este 0 906.8 0.5 45
2017-11-18 23:00:00 9.5 3 Norte 9 Nordeste 0 906.7 0.7 43
2017-11-18 22:00:00 10.6 6 Nordeste 11 Nordeste 0 906.5 0.9 41
2017-11-18 21:00:00 11.2 4 Norte 7 Nordeste 0 906.3 1.1 41
2017-11-18 20:00:00 11.6 0 Calma 5 Nordeste 0 906 0.9 39
2017-11-18 19:00:00 12.3 2 Sudeste 6 Sudeste 0 905.6 0.7 38
2017-11-18 18:00:00 14.3 4 Sudeste 6 Sudeste 0 905.2 0.2 35
2017-11-18 17:00:00 16.2 3 Sudeste 9 Sur 0 905.1 -0.5 33
2017-11-18 16:00:00 16.2 6 Sudeste 11 Sur 0 904.9 -1 33
2017-11-18 15:00:00 16.7 6 Este 14 Sudeste 0 905 -1.5 34
2017-11-18 14:00:00 16.3 6 Sudeste 15 Sudeste 0 905.6 -0.9 36
2017-11-18 13:00:00 15.9 9 Sudeste 15 Sudeste 0 905.9 -0.5 35
2017-11-18 12:00:00 15.9 2 Noroeste 16 Sudeste 0 906.5 0.4 37
2017-11-18 11:00:00 14.5 8 Sudeste 14 Este 0 906.5 0.7 37
2017-11-18 10:00:00 12.7 0 Calma 6 Norte 0 906.4 0.8 42
2017-11-18 09:00:00 10.3 3 Norte 8 Norte 0 906.1 0.4 44
2017-11-18 08:00:00 8.1 4 Noroeste 10 Noroeste 0 905.8 0.2 46
2017-11-18 07:00:00 8.2 8 Noroeste 10 Noroeste 0 905.6 -0.3 46
2017-11-18 06:00:00 8.3 7 Noroeste 12 Noroeste 0 905.7 -0.1 45
2017-11-18 05:00:00 8.7 6 Noroeste 10 Noroeste 0 905.6 -0.3 44
2017-11-18 04:00:00 9.2 3 Nordeste 9 Nordeste 0 905.9 -0.3 44
2017-11-18 03:00:00 9.4 6 Este 8 Este 0 905.8 -0.4 43
2017-11-18 02:00:00 9.8 4 Noroeste 8 Este 0 905.9 -0.3 44
2017-11-18 01:00:00 10.6 5 Este 6 Este 0 906.2 0.2 42
2017-11-18 00:00:00 10.9 2 Norte 7 Norte 0 906.2 0.5 42
2017-11-17 23:00:00 10.4 4 Noroeste 6 Noroeste 0 906.2 0.7 42
2017-11-17 22:00:00 11 3 Nordeste 9 Sudeste 0 906 0.8 41
2017-11-17 21:00:00 11.7 3 Nordeste 7 Norte 0 905.7 0.6 41
2017-11-17 20:00:00 11.5 4 Norte 6 Norte 0 905.5 0.2 39
2017-11-17 19:00:00 12 0 Calma 5 Sur 0 905.2 0 38
2017-11-17 18:00:00 13.2 4 Sudoeste 5 Sudoeste 0 905.1 -0.3 36
2017-11-17 17:00:00 15.4 2 Sur 20 Sudeste 0 905.3 -0.5 34
2017-11-17 16:00:00 15.5 6 Sur 12 Sudeste 0 905.2 -1.2 33
2017-11-17 15:00:00 15.8 6 Sur 13 Sur 0 905.4 -1.5 34
2017-11-17 14:00:00 16 6 Sur 12 Sudeste 0 905.8 -1.2 36
2017-11-17 13:00:00 15.9 5 Sur 13 Sur 0 906.4 -0.4 36
2017-11-17 12:00:00 14.7 3 Sur 15 Sur 0 906.9 0.4 37
2017-11-17 11:00:00 13 3 Sudeste 38 Sur 0 907 0.8 39
2017-11-17 10:00:00 12.7 0 Calma 8 Oeste 0 906.8 0.8 40
2017-11-17 09:00:00 9.7 3 Noroeste 7 Oeste 0 906.5 0.5 41
2017-11-17 08:00:00 8.6 4 Oeste 8 Noroeste 0 906.2 0.1 42
2017-11-17 07:00:00 8.4 4 Noroeste 5 Oeste 0 906 -0.2 42
2017-11-17 06:00:00 9.1 5 Sudoeste 7 Oeste 0 906 -0.4 42
2017-11-17 05:00:00 8.5 4 Oeste 8 Oeste 0 906.1 -0.5 42
2017-11-17 04:00:00 7.9 5 Noroeste 8 Noroeste 0 906.2 -0.5 42
2017-11-17 03:00:00 8.6 5 Noroeste 6 Noroeste 0 906.4 -0.6 41
2017-11-17 02:00:00 9.5 0 Calma 5 Este 0 906.6 -0.2 40
2017-11-17 01:00:00 9.8 3 Este 5 Noroeste 0 906.7 0.1 40
2017-11-17 00:00:00 10.6 3 Sudeste 8 Nordeste 0 907 0.7 39
2017-11-16 23:00:00 10.9 5 Noroeste 10 Noroeste 0 906.8 0.7 38
2017-11-16 22:00:00 11.1 6 Noroeste 12 Noroeste 0 906.6 0.7 38
2017-11-16 21:00:00 10.6 7 Noroeste 11 Noroeste 0 906.3 1 39
2017-11-16 20:00:00 11.7 6 Noroeste 12 Noroeste 0 906.1 0.8 37
2017-11-16 19:00:00 12.3 4 Noroeste 5 Noroeste 0 905.9 0.6 35
2017-11-16 18:00:00 14.2 2 Sudoeste 9 Sudeste 0 905.3 0 33
2017-11-16 17:00:00 16.1 5 Sur 14 Sudeste 0 905.3 -0.3 31
2017-11-16 16:00:00 16.3 6 Sudeste 14 Sur 0 905.3 -0.7 30
2017-11-16 15:00:00 16.4 7 Sur 13 Sur 0 905.3 -1.1 31
2017-11-16 14:00:00 16.4 5 Sur 30 Sur 0 905.6 -0.8 33
2017-11-16 13:00:00 15.5 8 Sur 32 Sudeste 0 906 0 36
2017-11-16 12:00:00 15.3 4 Sudoeste 9 Sur 0 906.4 0.9 39
2017-11-16 11:00:00 13.6 3 Sudoeste 7 Sudoeste 0 906.4 1.3 41
2017-11-16 10:00:00 10.9 0 Calma 8 Noroeste 0 906 1.5 46
2017-11-16 09:00:00 7.7 5 Noroeste 7 Noroeste 0 905.5 1.1 47
2017-11-16 08:00:00 6.2 4 Oeste 5 Oeste 0 905.1 0.7 48
2017-11-16 07:00:00 6.9 0 Calma 5 Este 0 904.5 0 47
2017-11-16 06:00:00 7.1 0 Calma 9 Noroeste 0 904.4 -0.5 47
2017-11-16 05:00:00 6.2 5 Noroeste 8 Noroeste 0 904.4 -0.5 49
2017-11-16 04:00:00 6.1 4 Noroeste 7 Noroeste 0 904.5 -0.5 48
2017-11-16 03:00:00 6.3 4 Noroeste 6 Noroeste 0 904.9 0 48
2017-11-16 02:00:00 7 0 Calma 3 Este 0 904.9 -0.1 45
2017-11-16 01:00:00 7.1 2 Nordeste 4 Este 0 905 0.1 45
2017-11-16 00:00:00 7.2 3 Este 4 Este 0 904.9 0.1 46
2017-11-15 23:00:00 7.6 3 Nordeste 6 Norte 0 905 0.4 45
2017-11-15 22:00:00 7.2 4 Norte 5 Norte 0 904.9 0.5 44
2017-11-15 21:00:00 7.7 2 Nordeste 11 Este 0 904.8 0.8 44
2017-11-15 20:00:00 8.1 2 Sudeste 6 Sur 0 904.6 0.5 42
2017-11-15 19:00:00 8.9 3 Sudeste 13 Este 0 904.4 0.2 42
2017-11-15 18:00:00 10.2 3 Sudoeste 14 Este 0 904 -0.4 39
2017-11-15 17:00:00 12.4 5 Sur 11 Sudeste 0 904.1 -0.4 37
2017-11-15 16:00:00 12.4 7 Sur 11 Sudoeste 0 904.2 -0.9 38
2017-11-15 15:00:00 12.8 3 Sudoeste 12 Sur 0 904.4 -1.4 39
2017-11-15 14:00:00 10.6 3 Sudoeste 22 Sudeste 0 904.5 -1.4 41
2017-11-15 13:00:00 10.9 3 Sur 18 Este 0 905.1 -0.6 40
2017-11-15 12:00:00 10.2 5 Sur 12 Sur 0 905.8 0.3 42
2017-11-15 11:00:00 9.4 3 Sur 11 Este 0 905.9 0.6 43
2017-11-15 10:00:00 8.4 0 Calma 23 Sudeste 0 905.7 0.5 46
2017-11-15 09:00:00 5.9 0 Calma 4 Norte 0 905.5 0.4 49
2017-11-15 08:00:00 3.4 0 Calma 6 Noroeste 0 905.3 0.4 53
2017-11-15 07:00:00 3.3 4 Norte 7 Noroeste 0 905.2 0.2 53
2017-11-15 06:00:00 3.3 3 Noroeste 7 Noroeste 0 905.1 -0.1 53
2017-11-15 05:00:00 3.5 4 Noroeste 6 Noroeste 0 904.9 -0.3 53
2017-11-15 04:00:00 3.4 0 Calma 6 Este 0 905 -0.3 51
2017-11-15 03:00:00 4.6 6 Este 9 Este 0 905.2 0 48
2017-11-15 02:00:00 5.6 5 Sudeste 8 Sudeste 0 905.2 0.1 47
2017-11-15 01:00:00 5.6 4 Este 8 Este 0 905.3 0.5 46
2017-11-15 00:00:00 6.6 2 Sudoeste 5 Nordeste 0 905.2 0.7 45
2017-11-14 23:00:00 7.1 4 Nordeste 7 Noroeste 0 905.1 0.9 45
2017-11-14 22:00:00 6.8 5 Noroeste 9 Noroeste 0 904.8 0.6 49
2017-11-14 21:00:00 7 4 Noroeste 8 Noroeste 0 904.5 0.7 47
2017-11-14 20:00:00 7.8 3 Noroeste 16 Este 0 904.2 0.8 42
2017-11-14 19:00:00 8.5 2 Noroeste 6 Oeste 0 904.2 0.7 41
2017-11-14 18:00:00 9.7 4 Oeste 19 Sur 0 903.8 0.3 39
2017-11-14 17:00:00 12.1 4 Sur 14 Sudeste 0 903.4 -0.6 37
2017-11-14 16:00:00 12.3 5 Sur 14 Sur 0 903.5 -1.1 36
2017-11-14 15:00:00 12.4 7 Sur 14 Sur 0 903.5 -1.3 37
2017-11-14 14:00:00 11.4 6 Sudoeste 21 Sudeste 0 904 -1 39
2017-11-14 13:00:00 10 9 Sur 29 Sudeste 0 904.6 -0.4 44
2017-11-14 12:00:00 9.7 3 Sur 30 Sur 0 904.8 0 45
2017-11-14 11:00:00 7 2 Oeste 7 Oeste 0 905 0.8 50
2017-11-14 10:00:00 4.7 4 Sur 8 Sur 0 905 1 54
2017-11-14 09:00:00 2.3 4 Sudoeste 7 Sudoeste 0 904.8 1.1 59
2017-11-14 08:00:00 0.9 4 Sur 9 Este 0 904.2 0 60
2017-11-14 07:00:00 1.1 5 Este 10 Nordeste 0 904 -0.6 59
2017-11-14 06:00:00 2.8 7 Sudoeste 10 Sudoeste 0 903.7 -1.8 53
2017-11-14 05:00:00 1.9 5 Noroeste 13 Noroeste 0 904.2 -1.1 57
2017-11-14 04:00:00 1.5 6 Noroeste 11 Noroeste 0 904.6 -1 57
2017-11-14 03:00:00 1.3 3 Nordeste 11 Sudeste 0 905.5 -0.3 55
2017-11-14 02:00:00 2.7 2 Este 10 Norte 0 905.3 -0.5 51
2017-11-14 01:00:00 1.7 2 Norte 13 Norte 0 905.6 -0.5 53
2017-11-14 00:00:00 3.1 5 Este 15 Norte 0 905.8 -0.2 50
2017-11-13 23:00:00 3 4 Nordeste 12 Norte 0 905.8 0.1 54
2017-11-13 22:00:00 2.7 4 Oeste 7 Oeste 0 906.1 0.9 55
2017-11-13 21:00:00 3 4 Oeste 17 Sur 0 906 0.7 53
2017-11-13 20:00:00 4.4 5 Norte 42 Sudeste 0 905.7 0.6 50
2017-11-13 19:00:00 5.4 9 Nordeste 43 Nordeste 0 905.2 0.1 47
2017-11-13 18:00:00 5.8 15 Norte 40 Noroeste 0 905.3 0.3 47
2017-11-13 17:00:00 7.8 12 Nordeste 34 Norte 0 905.1 -0.5 44
2017-11-13 16:00:00 8.6 15 Norte 39 Noroeste 0 905.1 -0.1 44
2017-11-13 15:00:00 9 18 Norte 41 Norte 0 905 -0.8 44
2017-11-13 14:00:00 9 21 Norte 45 Noroeste 0 905.6 0.3 44
2017-11-13 13:00:00 8.6 25 Norte 48 Norte 0 905.2 -0.3 45
2017-11-13 12:00:00 9.6 17 Norte 41 Norte 0 905.8 0.4 45
2017-11-13 11:00:00 9.2 19 Norte 36 Norte 0 905.3 0.8 47
2017-11-13 10:00:00 8.9 6 Nordeste 20 Nordeste 0 905.5 1.3 50
2017-11-13 09:00:00 7.9 5 Noroeste 24 Noroeste 0 905.4 1.2 54
2017-11-13 08:00:00 7.5 17 Noroeste 30 Noroeste 0 904.5 -0.1 57
2017-11-13 07:00:00 7.3 6 Norte 10 Norte 0 904.2 -0.8 60
2017-11-13 06:00:00 8.2 5 Norte 32 Norte 0 904.2 -0.7 57
2017-11-13 05:00:00 8.7 17 Norte 39 Norte 0 904.6 -0.5 57
2017-11-13 04:00:00 7.7 0 Calma 15 Norte 0 905 -0.8 59
2017-11-13 03:00:00 9.6 7 Noroeste 19 Noroeste 0 904.9 -0.6 50
2017-11-13 02:00:00 9.2 12 Noroeste 31 Norte 0 905.1 -0.3 55
2017-11-13 01:00:00 8.6 9 Norte 20 Nordeste 0 905.8 0.1 54
2017-11-13 00:00:00 8.8 3 Norte 10 Norte 0 905.5 -0.2 52
2017-11-12 23:00:00 9.2 3 Sur 24 Noroeste 0 905.4 -1 51
2017-11-12 22:00:00 10.4 9 Norte 27 Norte 0 905.7 -0.6 50
2017-11-12 21:00:00 10.3 17 Norte 30 Norte 0 905.7 0 49
2017-11-12 20:00:00 10.7 11 Norte 26 Noroeste 0 906.4 0.6 43
2017-11-12 19:00:00 10.9 4 Norte 24 Norte 0 906.3 0.3 39
2017-11-12 18:00:00 13 15 Norte 33 Noroeste 0 905.7 -0.3 34
2017-11-12 17:00:00 15.5 9 Norte 35 Norte 0 905.8 -0.7 31
2017-11-12 16:00:00 16.1 16 Noroeste 31 Noroeste 0 906 -1.1 31
2017-11-12 15:00:00 15.7 6 Sur 13 Sur 0 906 -1.7 37
2017-11-12 14:00:00 15.5 6 Sur 15 Sur 0 906.5 -1.9 37
2017-11-12 13:00:00 14.8 6 Sur 14 Sur 0 907.1 -1.4 40
2017-11-12 12:00:00 14 5 Sur 12 Sur 0 907.7 -0.6 44
2017-11-12 11:00:00 12.4 2 Este 5 Sur 0 908.4 0.6 49
2017-11-12 10:00:00 9.9 3 Sur 7 Sur 0 908.5 0.7 54
2017-11-12 09:00:00 7.9 2 Sudeste 8 Este 0 908.3 0.5 60
2017-11-12 08:00:00 5.5 0 Calma 8 Sur 0 907.8 -0.1 62
2017-11-12 07:00:00 5.5 2 Oeste 6 Oeste 0 907.8 -0.5 62
2017-11-12 06:00:00 5.9 0 Calma 9 Sudoeste 0 907.8 -0.7 61
2017-11-12 05:00:00 5.8 0 Calma 7 Este 0 907.9 -1.2 62
2017-11-12 04:00:00 6.4 5 Este 9 Este 0 908.3 -1.5 60
2017-11-12 03:00:00 8.2 5 Nordeste 6 Nordeste 0 908.5 -1.6 57
2017-11-12 02:00:00 8.3 0 Calma 7 Noroeste 0 909.1 -1.3 55
2017-11-12 01:00:00 8.7 5 Oeste 9 Oeste 0 909.8 -0.8 55
2017-11-12 00:00:00 8.9 4 Noroeste 10 Oeste 0 910.1 -0.4 56
2017-11-11 23:00:00 8.4 4 Oeste 9 Oeste 0 910.4 -0.5 57
2017-11-11 22:00:00 9.9 5 Norte 11 Norte 0 910.6 -0.1 53
2017-11-11 21:00:00 10.3 0 Calma 6 Norte 0 910.5 -0.4 52
2017-11-11 20:00:00 10.6 4 Noroeste 6 Sur 0 910.9 0.1 50
2017-11-11 19:00:00 11.7 0 Calma 6 Sudeste 0 910.7 0 46
2017-11-11 18:00:00 13.1 4 Sudeste 9 Sudeste 0 910.9 0.1 44
2017-11-11 17:00:00 15 6 Sur 13 Sur 0 910.8 -0.6 41
2017-11-11 16:00:00 15.3 7 Sur 15 Sur 0 910.7 -1.5 41
2017-11-11 15:00:00 16 4 Sur 14 Sudoeste 0 910.8 -2.1 41
2017-11-11 14:00:00 15.2 6 Sudeste 12 Sudoeste 0 911.4 -1.7 42
2017-11-11 13:00:00 14.3 3 Noroeste 12 Sudoeste 0 912.2 -0.9 45
2017-11-11 12:00:00 12.8 4 Sur 10 Sur 0 912.9 0.1 52
2017-11-11 11:00:00 11.6 2 Sudeste 10 Sur 0 913.1 0.5 59
2017-11-11 10:00:00 9.3 6 Sur 11 Sur 0 913.1 0.7 69
2017-11-11 09:00:00 6.1 6 Noroeste 11 Norte 0 912.8 0.5 79
2017-11-11 08:00:00 5 0 Calma 5 Noroeste 0 912.6 0.1 83
2017-11-11 07:00:00 4.7 3 Noroeste 5 Oeste 0 912.4 0.6 81
2017-11-11 06:00:00 5.3 0 Calma 7 Este 0 912.3 -0.2 77
2017-11-11 05:00:00 6.2 5 Sudeste 8 Sur 0 912.5 -0.4 73
2017-11-11 04:00:00 6.8 6 Sur 12 Sudeste 0 911.8 -1.4 71
2017-11-11 03:00:00 6.8 4 Sur 9 Sur 0 912.5 -1 71
2017-11-11 02:00:00 7.4 5 Sudoeste 11 Sudoeste 0 912.9 -0.6 70
2017-11-11 01:00:00 7.1 3 Sudoeste 11 Sudoeste 0 913.2 -0.3 70
2017-11-11 00:00:00 7.6 6 Oeste 12 Oeste 0 913.5 0.2 66
2017-11-10 23:00:00 7.8 4 Este 8 Este 0 913.5 0.4 63
2017-11-10 22:00:00 8.1 5 Nordeste 11 Norte 0 913.5 0.8 63
2017-11-10 21:00:00 8.3 3 Oeste 7 Sudoeste 0 913.3 0.7 61
2017-11-10 20:00:00 9.9 5 Norte 20 Norte 0 913.1 0.5 54
2017-11-10 19:00:00 9.7 16 Este 23 Nordeste 0 912.7 0.4 57
2017-11-10 18:00:00 10.9 9 Nordeste 33 Norte 0 912.6 0 54
2017-11-10 17:00:00 12.6 12 Nordeste 33 Norte 0 912.6 -0.2 49
2017-11-10 16:00:00 13.8 13 Nordeste 39 Nordeste 0 912.3 -0.5 45
2017-11-10 15:00:00 14.3 11 Nordeste 32 Nordeste 0 912.6 -0.7 45
2017-11-10 14:00:00 14.1 12 Nordeste 38 Nordeste 0 912.8 -0.5 46
2017-11-10 13:00:00 14.1 18 Nordeste 31 Nordeste 0 912.8 0 47
2017-11-10 12:00:00 12.1 0 Calma 26 Nordeste 0 913.3 1.1 51
2017-11-10 11:00:00 11.3 8 Este 21 Sudeste 0 913.3 1.8 54
2017-11-10 10:00:00 8.1 4 Sur 13 Sur 0 912.8 1.9 59
2017-11-10 09:00:00 5.7 2 Sudoeste 11 Este 0 912.2 0.9 65
2017-11-10 08:00:00 4.9 8 Este 22 Nordeste 0 911.5 0 66
2017-11-10 07:00:00 6.8 11 Nordeste 28 Nordeste 0 910.9 -0.4 65
2017-11-10 06:00:00 6 6 Sur 19 Nordeste 0 911.3 0.2 66
2017-11-10 05:00:00 6.1 4 Sudeste 17 Sur 0 911.5 0.4 66
2017-11-10 04:00:00 5.3 9 Sudeste 19 Sudeste 0 911.3 -0.2 64
2017-11-10 03:00:00 5.8 8 Este 33 Norte 0 911.1 -0.4 60
2017-11-10 02:00:00 5.7 14 Norte 37 Nordeste 0 911.1 -0.3 57
2017-11-10 01:00:00 4.9 10 Nordeste 26 Norte 0 911.5 0.3 49
2017-11-10 00:00:00 4.9 12 Nordeste 28 Este 0 911.5 0.2 36
2017-11-09 23:00:00 4.7 7 Nordeste 30 Norte 0 911.4 0.2 44
2017-11-09 22:00:00 4.4 9 Norte 23 Norte 0 911.2 0.2 46
2017-11-09 21:00:00 4.6 7 Norte 31 Noroeste 0 911.3 1.2 51
2017-11-09 20:00:00 5.3 14 Noroeste 31 Noroeste 0 911.2 1.5 51
2017-11-09 19:00:00 5.4 14 Norte 28 Norte 0 911 1.3 51
2017-11-09 18:00:00 6.6 9 Norte 26 Nordeste 0 910.1 0.5 45
2017-11-09 17:00:00 8.6 9 Nordeste 27 Norte 0 909.7 -0.2 39
2017-11-09 16:00:00 9.6 9 Norte 32 Norte 0 909.7 -0.4 37
2017-11-09 15:00:00 9.5 9 Nordeste 27 Nordeste 0 909.6 -1.4 37
2017-11-09 14:00:00 9.5 6 Norte 39 Nordeste 0 909.9 -0.8 37
2017-11-09 13:00:00 7.5 13 Norte 33 Norte 0 910.1 -0.4 49
2017-11-09 12:00:00 7.3 17 Norte 48 Norte 0 911 0.4 50
2017-11-09 11:00:00 6.5 19 Norte 39 Norte 0 910.7 1.3 52
2017-11-09 10:00:00 5.4 25 Norte 44 Norte 0 910.5 1.2 54
2017-11-09 09:00:00 3.9 21 Norte 45 Noroeste 0 910.6 2.1 58
2017-11-09 08:00:00 3.4 28 Norte 54 Norte 0 909.4 0.7 56
2017-11-09 07:00:00 3.2 9 Norte 27 Noroeste 0 909.3 0.5 55
2017-11-09 06:00:00 2 5 Sudoeste 21 Norte 0 908.5 -0.3 56
2017-11-09 05:00:00 2.7 9 Norte 26 Norte 0 908.7 -0.5 55
2017-11-09 04:00:00 2.7 10 Nordeste 24 Norte 0 908.8 -0.4 54
2017-11-09 03:00:00 3.1 15 Norte 38 Norte 0 908.8 -0.5 53
2017-11-09 02:00:00 3.1 9 Nordeste 24 Norte 0 909.2 0 51
2017-11-09 01:00:00 2.7 12 Nordeste 40 Norte 0 909.2 -0.1 60
2017-11-09 00:00:00 2.6 10 Nordeste 36 Nordeste 0 909.3 0.3 62
2017-11-08 23:00:00 3.1 17 Norte 33 Norte 0 909.2 0.1 59
2017-11-08 22:00:00 3.3 17 Norte 39 Norte 0 909.3 2.1 60
2017-11-08 21:00:00 3.7 16 Norte 38 Norte 0 909 2.2 64
2017-11-08 20:00:00 3.9 15 Norte 44 Noroeste 0 909.1 2 67
2017-11-08 19:00:00 6.9 16 Noroeste 40 Norte 0 907.2 0.3 43
2017-11-08 18:00:00 7.4 21 Noroeste 42 Noroeste 0 906.8 -0.4 41
2017-11-08 17:00:00 8.9 13 Norte 34 Norte 0 907.1 -0.3 39
2017-11-08 16:00:00 9.6 12 Norte 28 Norte 0 906.9 -1.3 39
2017-11-08 15:00:00 9.9 14 Norte 34 Norte 0 907.2 -1.5 38
2017-11-08 14:00:00 10.2 16 Nordeste 35 Nordeste 0 907.4 -1 41
2017-11-08 13:00:00 8.1 10 Nordeste 30 Nordeste 0 908.2 0.3 50
2017-11-08 12:00:00 8.9 10 Nordeste 32 Norte 0 908.7 1 49
2017-11-08 11:00:00 8.1 14 Norte 36 Norte 0 908.4 1.3 53
2017-11-08 10:00:00 7.5 21 Norte 43 Norte 0 907.9 0.9 55
2017-11-08 09:00:00 6 18 Norte 40 Norte 0 907.7 0.9 62
2017-11-08 08:00:00 4.9 12 Nordeste 31 Nordeste 0 907.1 0.5 67
2017-11-08 07:00:00 5.1 9 Nordeste 28 Nordeste 0 907 0.8 68
2017-11-08 06:00:00 5.3 9 Nordeste 28 Norte 0 906.8 0.5 69
2017-11-08 05:00:00 6 10 Norte 26 Norte 0 906.6 0.6 71
2017-11-08 04:00:00 6.6 7 Este 24 Norte 0 906.2 0.2 69
2017-11-08 03:00:00 6.8 8 Nordeste 21 Nordeste 0 906.3 0.5 70
2017-11-08 02:00:00 6.9 7 Oeste 15 Oeste 0 906 0.1 66
2017-11-08 01:00:00 6.7 3 Nordeste 10 Nordeste 0 906 0.4 53
2017-11-08 00:00:00 6.8 4 Nordeste 7 Noroeste 0 905.8 0.2 50
2017-11-07 23:00:00 7.3 5 Oeste 11 Norte 0 905.9 0.9 47
2017-11-07 22:00:00 8.3 4 Norte 13 Norte 0 905.6 0.9 44
2017-11-07 21:00:00 8 0 Calma 11 Nordeste 0 905.6 1.1 43
2017-11-07 20:00:00 8.8 5 Este 14 Este 0 905 0.7 53
2017-11-07 19:00:00 9.3 7 Este 10 Este 0 904.7 0.7 50
2017-11-07 18:00:00 11.2 6 Este 13 Sur 0 904.5 0.3 45
2017-11-07 17:00:00 13.4 9 Sur 17 Sur 0 904.3 -0.2 39
2017-11-07 16:00:00 13.9 9 Sur 17 Sur 0 904 -0.7 41
2017-11-07 15:00:00 13.3 10 Sur 17 Sur 0 904.2 -1 42
2017-11-07 14:00:00 12.5 8 Sur 24 Sudeste 0 904.5 -0.9 44
2017-11-07 13:00:00 10.9 10 Sudeste 30 Sudeste 0 904.7 -0.3 49
2017-11-07 12:00:00 9.5 8 Sur 33 Sudeste 0 905.2 0.5 51
2017-11-07 11:00:00 7.8 7 Sur 31 Sudeste 0 905.4 0.9 57
2017-11-07 10:00:00 7.3 9 Sudeste 37 Sudeste 0 905 0.8 59
2017-11-07 09:00:00 4.9 4 Sudeste 9 Sur 0 904.7 0 65
2017-11-07 08:00:00 2.1 0 Calma 10 Sur 0 904.5 -0.4 72
2017-11-07 07:00:00 2.1 6 Sur 10 Sur 0 904.2 -0.7 72
2017-11-07 06:00:00 2 4 Sudoeste 9 Sur 0 904.7 -0.6 72
2017-11-07 05:00:00 2.4 3 Sur 10 Sudoeste 0 904.9 -0.9 70
2017-11-07 04:00:00 2.8 4 Sudoeste 12 Sudoeste 0 904.9 -1.2 67
2017-11-07 03:00:00 3 4 Sudoeste 10 Sudoeste 0 905.3 -0.6 65
2017-11-07 02:00:00 2.6 3 Oeste 10 Noroeste 0 905.8 -0.1 66
2017-11-07 01:00:00 3.3 3 Este 14 Sur 0 906.1 0.1 60
2017-11-07 00:00:00 3.9 4 Sur 13 Sur 0 905.9 -0.1 57
2017-11-06 23:00:00 5 6 Este 11 Nordeste 0 905.9 -0.6 52
2017-11-06 22:00:00 6 9 Este 13 Este 0 906 -0.5 48
2017-11-06 21:00:00 6.1 6 Nordeste 26 Nordeste 0 906 -0.5 48
2017-11-06 20:00:00 6.5 7 Nordeste 18 Nordeste 0 906.5 0 49
2017-11-06 19:00:00 6.9 8 Nordeste 22 Nordeste 0 906.5 -0.1 49
2017-11-06 18:00:00 8.3 8 Norte 27 Norte 0 906.5 -0.7 45
2017-11-06 17:00:00 10.5 10 Norte 23 Nordeste 0 906.5 -1 42
2017-11-06 16:00:00 11.7 9 Nordeste 23 Norte 0 906.6 -1.6 40
2017-11-06 15:00:00 11.9 5 Este 22 Sur 0 907.2 -1.6 42
2017-11-06 14:00:00 11.5 7 Sur 23 Sudoeste 0 907.5 -1.9 44
2017-11-06 13:00:00 10.8 8 Sudoeste 22 Sudeste 0 908.2 -1.1 45
2017-11-06 12:00:00 9.8 10 Sudoeste 22 Sudeste 0 908.8 -0.2 48
2017-11-06 11:00:00 10 4 Norte 27 Norte 0 909.4 0.6 48
2017-11-06 10:00:00 8 15 Nordeste 39 Nordeste 0 909.3 1.2 53
2017-11-06 09:00:00 6.6 11 Nordeste 26 Nordeste 0 909 1 57
2017-11-06 08:00:00 5 5 Oeste 17 Norte 0 908.8 0.4 60
2017-11-06 07:00:00 4.9 6 Sudoeste 35 Nordeste 0 908.1 -0.5 59
2017-11-06 06:00:00 5.6 11 Nordeste 34 Nordeste 0 908 -1 57
2017-11-06 05:00:00 5.5 7 Nordeste 17 Nordeste 0 908.4 -0.9 58
2017-11-06 04:00:00 6 4 Nordeste 24 Noroeste 0 908.6 -0.9 55
2017-11-06 03:00:00 6.4 10 Norte 23 Norte 0 909 -0.5 55
2017-11-06 02:00:00 6.2 4 Este 18 Sur 0 909.3 0 56
2017-11-06 01:00:00 5.7 4 Nordeste 10 Nordeste 0 909.5 0.4 59
2017-11-06 00:00:00 6.2 4 Sudeste 14 Este 0.1 909.5 0.9 58
2017-11-05 23:00:00 6.8 6 Nordeste 20 Este 0 909.3 0.7 57
2017-11-05 22:00:00 7.3 3 Norte 22 Norte 0 909.1 0.8 54
2017-11-05 21:00:00 8 8 Noroeste 22 Norte 0.1 908.6 0.5 53
2017-11-05 20:00:00 7.5 6 Norte 18 Norte 0.1 908.6 0.8 53
2017-11-05 19:00:00 7.9 7 Norte 20 Norte 0 908.3 0.7 51
2017-11-05 18:00:00 8.8 10 Norte 24 Norte 0.1 908.1 1.1 46
2017-11-05 17:00:00 9.6 13 Norte 32 Noroeste 0 907.8 0.5 44
2017-11-05 16:00:00 9.8 14 Norte 31 Norte 0.1 907.6 0 42
2017-11-05 15:00:00 12.1 8 Noroeste 29 Nordeste 0.1 907 -0.5 39
2017-11-05 14:00:00 11.5 9 Nordeste 28 Nordeste 0.1 907.3 0 42
2017-11-05 13:00:00 11 14 Norte 43 Norte 0.1 907.6 0.4 46
2017-11-05 12:00:00 10 20 Norte 41 Nordeste 0.2 907.5 0.7 51
2017-11-05 11:00:00 10.3 14 Norte 37 Norte 0.1 907.3 1.2 58
2017-11-05 10:00:00 9.6 11 Nordeste 25 Noroeste 0.1 907.2 1.7 65
2017-11-05 09:00:00 7.5 15 Nordeste 25 Nordeste 0.1 906.8 1.7 70
2017-11-05 08:00:00 7.2 11 Nordeste 28 Nordeste 0.1 906.1 1.3 77
2017-11-05 07:00:00 7.4 9 Nordeste 29 Norte 0.1 905.5 1 79
2017-11-05 06:00:00 7.9 10 Norte 22 Norte 0.1 905.1 1 79
2017-11-05 05:00:00 8.9 4 Nordeste 13 Nordeste 0.1 904.8 1.2 79
2017-11-05 04:00:00 8.7 6 Norte 19 Este 0.1 904.5 1.3 81
2017-11-05 03:00:00 8.8 6 Nordeste 26 Norte 0.1 904.1 1.4 79
2017-11-05 02:00:00 8.8 6 Nordeste 23 Nordeste 0.1 903.6 1.4 76
2017-11-05 01:00:00 9.4 6 Nordeste 14 Norte 0.2 903.2 1.4 77
2017-11-05 00:00:00 9.6 7 Norte 14 Nordeste 0.1 902.7 1.9 76
2017-11-04 23:00:00 9.5 4 Norte 14 Norte 0.1 902.2 1.9 77
2017-11-04 22:00:00 9.2 3 Este 14 Norte 0.2 901.8 1.8 91
2017-11-04 21:00:00 9.8 2 Este 10 Nordeste 0.1 900.8 1.8 96
2017-11-04 20:00:00 9.7 0 Calma 6 Nordeste 0.2 900.3 1.6 98
2017-11-04 19:00:00 9.9 0 Calma 7 Sur 0.1 900 1.7 94
2017-11-04 18:00:00 10.5 2 Sur 14 Sudoeste 0.2 899 0.9 88
2017-11-04 17:00:00 11.1 6 Sudoeste 15 Sudoeste 0.3 898.7 0.3 89
2017-11-04 16:00:00 11.7 5 Sudoeste 18 Sudoeste 0.2 898.3 -0.3 77
2017-11-04 15:00:00 11.3 9 Sudoeste 19 Sudoeste 0.3 898.1 -1.1 88
2017-11-04 14:00:00 10.5 11 Sudoeste 21 Sudoeste 0.3 898.4 -0.9 88
2017-11-04 13:00:00 10.4 5 Oeste 11 Sudoeste 0.3 898.6 -0.4 92
2017-11-04 12:00:00 10.2 5 Sudoeste 15 Sudoeste 0.3 899.2 0.6 99
2017-11-04 11:00:00 9.1 5 Sur 9 Sur 0.3 899.3 1.3 99
2017-11-04 10:00:00 9.3 3 Sur 8 Oeste 0.3 899 1.3 98
2017-11-04 09:00:00 8.9 0 Calma -- -- -- 898.6 1 99
2017-11-04 08:00:00 7.8 4 Sudoeste 15 Sudoeste 0.5 898 0.2 99
2017-11-04 07:00:00 7.9 14 Sudoeste 30 Sur 0.5 897.7 0 99
2017-11-04 06:00:00 8.8 3 Sur 6 Sudeste 0.1 897.6 -0.6 99
2017-11-04 05:00:00 8.8 3 Sudeste 8 Sudeste 0.1 897.8 -1 99
2017-11-04 04:00:00 8.9 2 Este 5 Sur 0.1 897.7 -1.1 99
2017-11-04 03:00:00 8.6 2 Oeste 14 Sudoeste 0 898.2 -1.1 99
2017-11-04 02:00:00 8.8 11 Sudoeste 25 Sudoeste 3.1 898.8 -0.8 96
2017-11-04 01:00:00 10.3 5 Este 9 Este 0 898.8 -0.8 91
2017-11-04 00:00:00 10.2 0 Calma 14 Sudeste 3 899.3 -0.6 89
2017-11-03 23:00:00 11.1 4 Sudeste 6 Sur 0 899.6 -0.3 81
2017-11-03 22:00:00 11.1 3 Sudeste 9 Sudeste 0 899.6 -0.1 77
2017-11-03 21:00:00 10.2 2 Noroeste 6 Noroeste 0 899.9 0.6 74
2017-11-03 20:00:00 10 5 Norte 14 Noroeste 0.7 899.9 0.6 83
2017-11-03 19:00:00 9.6 6 Oeste 43 Sudoeste 2.3 899.7 0.1 86
2017-11-03 18:00:00 13.1 5 Sudoeste 13 Sudoeste 0 899.3 -0.6 62
2017-11-03 17:00:00 13.9 8 Sudoeste 20 Sudoeste 0 899.3 -1.1 58
2017-11-03 16:00:00 15.6 8 Sudoeste 17 Sur 0 899.6 -1.4 54
2017-11-03 15:00:00 14 7 Oeste 18 Oeste 0 899.9 -1.6 67
2017-11-03 14:00:00 13.6 9 Sur 22 Sur 0 900.4 -1.4 62
2017-11-03 13:00:00 13.8 13 Sudoeste 37 Sudeste 0 901 -0.7 65
2017-11-03 12:00:00 13.7 10 Sur 37 Sudeste 0 901.5 0.1 72
2017-11-03 11:00:00 11.6 5 Sur 10 Sur 0 901.8 1 86
2017-11-03 10:00:00 9.8 5 Sur 12 Sur 0 901.7 1.1 94
2017-11-03 09:00:00 9.5 7 Sur 12 Sur 0 901.4 0.8 94
2017-11-03 08:00:00 9.1 4 Sudoeste 9 Sudoeste 0.1 900.8 0.4 94
2017-11-03 07:00:00 9.4 3 Sudoeste 10 Oeste 0.6 900.6 0.1 93
2017-11-03 06:00:00 9.8 5 Noroeste 14 Oeste 0.1 900.6 -0.8 81
2017-11-03 05:00:00 10.5 7 Sudeste 15 Este 0 900.4 -1.4 72
2017-11-03 04:00:00 10.8 11 Sudeste 17 Este 0 900.5 -1.7 72
2017-11-03 03:00:00 11.2 4 Este 8 Este 0 901.4 -1.6 71
2017-11-03 02:00:00 11.6 4 Este 6 Este 0 901.8 -1.3 69
2017-11-03 01:00:00 11.8 2 Este 3 Este 0 902.2 -1.3 70
2017-11-03 00:00:00 11.6 2 Nordeste 5 Nordeste 0 903 -0.6 70
2017-11-02 23:00:00 11.5 4 Nordeste 6 Nordeste 0 903.1 -0.4 72
2017-11-02 22:00:00 11.6 2 Norte 4 Norte 0 903.5 0.1 72
2017-11-02 21:00:00 12.1 0 Calma 4 Nordeste 0 903.6 0.2 71
2017-11-02 20:00:00 12.4 0 Calma 5 Noroeste 0 903.5 -0.1 70
2017-11-02 19:00:00 12.5 4 Norte 7 Norte 0 903.4 -0.3 70
2017-11-02 18:00:00 13.2 0 Calma 6 Noroeste 0 903.4 -0.4 67
2017-11-02 17:00:00 13.6 3 Noroeste 6 Oeste 0 903.6 -1 66
2017-11-02 16:00:00 13.8 3 Sur 13 Sudoeste 0 903.7 -1.4 66
2017-11-02 15:00:00 13.8 0 Calma 22 Sur 0 903.8 -2 70
2017-11-02 14:00:00 13.3 5 Sur 13 Sur 0 904.6 -1.1 71
2017-11-02 13:00:00 12.7 5 Sur 21 Este 0 905.1 -0.9 76
2017-11-02 12:00:00 12.3 5 Sur 26 Este 0 905.8 -0.1 81
2017-11-02 11:00:00 11.8 8 Sudeste 14 Sudeste 0 905.7 0.2 87
2017-11-02 10:00:00 11 6 Sudeste 12 Sudeste 0 906 0.7 91
2017-11-02 09:00:00 10.6 6 Este 9 Este 0 905.9 0.6 91
2017-11-02 08:00:00 10.4 4 Sudeste 12 Sudeste 0 905.5 0.1 90
2017-11-02 07:00:00 10.5 6 Este 11 Este 0 905.3 0 88
2017-11-02 06:00:00 10.5 5 Este 10 Sudeste 0 905.3 -0.4 87
2017-11-02 05:00:00 10.6 6 Este 10 Este 0 905.4 -0.4 82
2017-11-02 04:00:00 10.6 7 Este 10 Este 0 905.3 -0.6 81
2017-11-02 03:00:00 10.7 5 Este 10 Este 0 905.7 -0.2 77
2017-11-02 02:00:00 10.9 0 Calma 9 Este 0 905.8 -0.3 73
2017-11-02 01:00:00 11.2 6 Este 10 Este 0 905.9 -0.2 68
2017-11-02 00:00:00 11.3 8 Este 12 Este 0 905.9 0 67
2017-11-01 23:00:00 12 9 Este 15 Este 0 906.1 0 64
2017-11-01 22:00:00 12.6 3 Nordeste 8 Norte 0 906.1 0.3 62
2017-11-01 21:00:00 12.6 4 Norte 6 Norte 0 905.9 0.1 61
2017-11-01 20:00:00 12.6 3 Norte 8 Norte 0 906.1 0.4 59
2017-11-01 19:00:00 12.8 4 Norte 8 Noroeste 0 905.8 -0.3 58
2017-11-01 18:00:00 13.8 0 Calma 6 Sudeste 0 905.8 -0.4 55
2017-11-01 17:00:00 15.3 4 Sudeste 13 Sur 0 905.7 -1.1 52
2017-11-01 16:00:00 16 8 Sudeste 16 Este 0 906.1 -1.5 50
2017-11-01 15:00:00 16 6 Sudeste 18 Sudeste 0 906.2 -2.2 51
2017-11-01 14:00:00 15.5 6 Sudeste 14 Sudeste 0 906.8 -1.7 55
2017-11-01 13:00:00 14.9 5 Nordeste 14 Este 0 907.6 -1 60
2017-11-01 12:00:00 12.3 6 Este 12 Este 0 908.4 0 72
2017-11-01 11:00:00 11.6 8 Este 14 Este 0 908.5 0.7 79
2017-11-01 10:00:00 10.6 5 Este 9 Este 0 908.6 1.5 89
2017-11-01 09:00:00 9.9 2 Nordeste 7 Sudeste 0 908.4 1.2 96
2017-11-01 08:00:00 9.9 3 Sudeste 7 Sudeste 0 907.8 0.5 96
2017-11-01 07:00:00 9.8 0 Calma 8 Sur 0 907.1 -0.1 96
2017-11-01 06:00:00 9.6 5 Sudeste 8 Sudeste 0 907.2 0 96
2017-11-01 05:00:00 9.7 0 Calma 8 Sudeste 0 907.3 0.2 91
2017-11-01 04:00:00 8.9 4 Este 6 Este 0 907.2 0 83
2017-11-01 03:00:00 9.1 5 Sudeste 14 Este 0 907.2 -0.2 75
2017-11-01 02:00:00 9.2 8 Este 12 Este 0 907.1 0 71
2017-11-01 01:00:00 10.4 2 Noroeste 4 Norte 0 907.2 0.3 68
2017-11-01 00:00:00 10.9 0 Calma 4 Norte 0 907.4 0.6 66
2017-10-31 23:00:00 10.6 2 Norte 9 Noroeste 0 907.1 0.4 67
2017-10-31 22:00:00 11.3 4 Noroeste 9 Norte 0 906.9 0.3 65
2017-10-31 21:00:00 11.7 6 Norte 12 Noroeste 0 906.8 0.5 65
2017-10-31 20:00:00 11.7 7 Norte 10 Norte 0 906.7 0.6 64
2017-10-31 19:00:00 12.2 0 Calma 3 Noroeste 0 906.6 0.4 62
2017-10-31 18:00:00 14.4 0 Calma 8 Sudoeste 0 906.3 0 55
2017-10-31 17:00:00 15.4 5 Sur 10 Este 0 906.1 -0.6 53
2017-10-31 16:00:00 15.5 6 Este 13 Sudeste 0 906.2 -0.8 54
2017-10-31 15:00:00 15.4 5 Sudeste 12 Sudeste 0 906.3 -1 57
2017-10-31 14:00:00 14.9 6 Sudeste 15 Sur 0 906.7 -0.9 62
2017-10-31 13:00:00 13 8 Sur 28 Sudeste 0 907 -0.4 68
2017-10-31 12:00:00 12.7 2 Sur 23 Sudeste 0 907.3 0.4 70
2017-10-31 11:00:00 11.4 0 Calma 5 Noroeste 0 907.6 1.5 76
2017-10-31 10:00:00 10.2 0 Calma 8 Nordeste 0 907.4 1.9 75
2017-10-31 09:00:00 9.4 4 Nordeste 7 Este 0 906.9 1.4 68
2017-10-31 08:00:00 7.6 3 Este 8 Nordeste 0 906.1 1 66
2017-10-31 07:00:00 6.9 4 Norte 9 Nordeste 0 905.5 0.4 62
2017-10-31 06:00:00 7.8 0 Calma 10 Nordeste 0 905.5 0.3 62
2017-10-31 05:00:00 8.2 4 Norte 17 Norte 0 905.1 -0.2 56
2017-10-31 04:00:00 8.7 7 Norte 23 Este 0 905.1 -0.3 51
2017-10-31 03:00:00 9.2 6 Nordeste 26 Nordeste 0 905.2 -0.1 53
2017-10-31 02:00:00 9 5 Nordeste 26 Este 0 905.3 0.1 63
2017-10-31 01:00:00 7.9 2 Oeste 10 Este 0 905.4 0.4 69
2017-10-31 00:00:00 9 8 Este 12 Este 0 905.3 0.6 62
2017-10-30 23:00:00 9.7 0 Calma 14 Este 0 905.2 1 58
2017-10-30 22:00:00 11.1 12 Este 21 Este 0 905 0.8 53
2017-10-30 21:00:00 12.1 5 Sudeste 9 Sudeste 0 904.7 1.1 50
2017-10-30 20:00:00 13.4 3 Sudoeste 8 Sudeste 0 904.2 0.7 46
2017-10-30 19:00:00 14.7 4 Sudeste 17 Este 0 904.2 0.7 44
2017-10-30 18:00:00 15.7 5 Sudeste 9 Sudeste 0 903.6 0 42
2017-10-30 17:00:00 17.7 5 Sur 16 Sur 0 903.5 -0.5 39
2017-10-30 16:00:00 17.8 6 Este 12 Este 0 903.5 -1.2 39
2017-10-30 15:00:00 17.4 4 Sudeste 13 Sudeste 0 903.6 -1.6 39
2017-10-30 14:00:00 16.4 6 Sudeste 27 Sudeste 0 904 -1.3 41
2017-10-30 13:00:00 14.9 6 Este 29 Sudeste 0 904.7 -0.5 43
2017-10-30 12:00:00 14.5 8 Sur 29 Sudeste 0 905.2 0 45
2017-10-30 11:00:00 13.8 6 Sur 12 Sur 0 905.3 0.7 46
2017-10-30 10:00:00 12.3 4 Sur 12 Sudeste 0 905.2 0.8 49
2017-10-30 09:00:00 9.7 3 Sur 11 Este 0 905.2 0.7 54
2017-10-30 08:00:00 7.3 5 Este 10 Este 0 904.6 0.8 54
2017-10-30 07:00:00 7.5 7 Noroeste 13 Noroeste 0 904.4 -0.5 54
2017-10-30 06:00:00 7.3 2 Noroeste 6 Norte 0 904.5 -0.8 56
2017-10-30 05:00:00 7.1 5 Noroeste 9 Noroeste 0 903.8 -1.6 57
2017-10-30 04:00:00 6.6 6 Noroeste 9 Noroeste 0 904.9 -0.8 53
2017-10-30 03:00:00 8.5 3 Noroeste 9 Oeste 0 905.3 -0.6 48
2017-10-30 02:00:00 7.9 5 Oeste 9 Sudoeste 0 905.4 -0.7 48
2017-10-30 01:00:00 9.4 5 Sur 9 Sudeste 0 905.7 -0.7 41
2017-10-30 00:00:00 10.9 7 Norte 13 Norte 0 905.9 -0.4 37
2017-10-29 23:00:00 11.8 0 Calma 9 Sudeste 0 906.1 -0.4 35
2017-10-29 22:00:00 12.4 5 Oeste 9 Oeste 0 906.4 0 36
2017-10-29 21:00:00 12.8 5 Noroeste 8 Noroeste 0 906.3 -0.1 37
2017-10-29 20:00:00 13.8 0 Calma 10 Este 0 906.5 0.1 27
2017-10-29 19:00:00 15.3 6 Este 10 Este 0 906.4 -0.3 26
2017-10-29 18:00:00 17.3 8 Sudeste 13 Sudeste 0 906.4 -0.6 25
2017-10-29 17:00:00 19.8 6 Sudeste 11 Sudeste 0 906.4 -1.1 25
2017-10-29 16:00:00 20.2 4 Sudeste 15 Sudeste 0 906.7 -1.6 26
2017-10-29 15:00:00 19.9 8 Sudeste 16 Sudeste 0 907 -2.2 28
2017-10-29 14:00:00 19.9 6 Sur 17 Sur 0 907.5 -2 30
2017-10-29 13:00:00 19.2 8 Sur 15 Sudeste 0 908.3 -1.3 31
2017-10-29 12:00:00 18.5 3 Oeste 9 Sudoeste 0 909.2 -0.2 36
2017-10-29 11:00:00 17 0 Calma 6 Sudoeste 0 909.5 0.6 41
2017-10-29 10:00:00 15.6 0 Calma 4 Sur 0 909.6 0.8 44
2017-10-29 09:00:00 11.9 0 Calma 7 Noroeste 0 909.4 0.5 50
2017-10-29 08:00:00 9.5 4 Oeste 6 Noroeste 0 908.9 0.1 54
2017-10-29 07:00:00 9.2 3 Noroeste 5 Noroeste 0 908.8 -0.2 54
2017-10-29 06:00:00 8.9 0 Calma -- -- 0 908.9 -0.5 54
2017-10-29 05:00:00 9.2 0 Calma 6 Sudeste 0 908.8 -0.8 53
2017-10-29 04:00:00 9.7 0 Calma 6 Sudeste 0 909 -1 51
2017-10-29 03:00:00 10.2 4 Noroeste 8 Noroeste 0 909.4 -0.9 49
2017-10-29 02:00:00 10.6 6 Noroeste 10 Noroeste 0 909.6 -0.9 50
2017-10-29 01:00:00 11.3 0 Calma 5 Sur 0 910.3 -0.2 47
2017-10-29 00:00:00 11 4 Noroeste 10 Este 0 910.5 0.2 46
2017-10-28 23:00:00 13.1 7 Este 21 Este 0 910.4 0.1 40
2017-10-28 22:00:00 13.9 3 Norte 9 Norte 0 910.5 0.5 38
2017-10-28 21:00:00 14.3 5 Noroeste 8 Noroeste 0 910.3 0.4 37
2017-10-28 20:00:00 16.3 3 Sudeste 11 Sudeste 0 910.3 0.5 34
2017-10-28 19:00:00 17.3 9 Sudeste 15 Este 0 910 0 33
2017-10-28 18:00:00 19.1 9 Sudeste 16 Sudeste 0 909.9 -0.7 32
2017-10-28 17:00:00 19.7 7 Sudeste 17 Sudeste 0 909.8 -1.5 33
2017-10-28 16:00:00 20 6 Sur 14 Sur 0 910 -1.7 33
2017-10-28 15:00:00 19.7 5 Sur 14 Sudeste 0 910.6 -1.5 37
2017-10-28 14:00:00 19.3 5 Sur 12 Sudeste 0 911.3 -1.1 37
2017-10-28 13:00:00 18.3 0 Calma 9 Oeste 0 911.7 -0.4 39
2017-10-28 12:00:00 16.4 4 Sudeste 10 Sudeste 0 912.1 0.4 42
2017-10-28 11:00:00 14.3 0 Calma 11 Noroeste 0 912.4 1.3 46
2017-10-28 10:00:00 11.6 3 Noroeste 11 Sudeste 0 912.1 0.7 49
2017-10-28 09:00:00 10.2 0 Calma 6 Este 0 911.7 0.4 47
2017-10-28 08:00:00 9.9 4 Oeste 6 Oeste 0 911.1 -0.2 43
2017-10-28 07:00:00 10.7 2 Noroeste 12 Este 0 911.4 -0.4 39
2017-10-28 06:00:00 12 11 Este 19 Este 0 911.3 -0.9 36
2017-10-28 05:00:00 13.3 4 Este 10 Sudoeste 0 911.3 -1.3 34
2017-10-28 04:00:00 14.1 5 Sudoeste 10 Sudoeste 0 911.8 -1 32
2017-10-28 03:00:00 15.5 0 Calma 8 Sudoeste 0 912.2 -1.2 29
2017-10-28 02:00:00 15.4 4 Oeste 12 Norte 0 912.6 -0.6 30
2017-10-28 01:00:00 17.1 5 Noroeste 20 Nordeste 0 912.8 -0.5 18
2017-10-28 00:00:00 17.2 0 Calma 19 Noroeste 0 913.4 0.1 25
2017-10-27 23:00:00 19 6 Norte 27 Noroeste 0 913.2 -0.2 23
2017-10-27 22:00:00 18.1 8 Norte 29 Norte 0 913.3 0.2 27
2017-10-27 21:00:00 19.2 13 Norte 26 Norte 0 913.3 -0.2 27
2017-10-27 20:00:00 20 14 Norte 30 Norte 0 913.4 -0.2 25
2017-10-27 19:00:00 21.2 18 Norte 35 Norte 0 913.1 -0.6 25
2017-10-27 18:00:00 22.8 18 Norte 73 Norte 0 913.5 -0.9 24
2017-10-27 17:00:00 23.9 20 Norte 41 Noroeste 0 913.6 -1.4 23
2017-10-27 16:00:00 24.5 20 Norte 40 Norte 0 913.7 -1.9 24
2017-10-27 15:00:00 25.3 13 Norte 42 Norte 0 914.4 -1.5 24
2017-10-27 14:00:00 25 13 Norte 39 Norte 0 915 -0.9 25
2017-10-27 13:00:00 24.6 10 Norte 30 Este 0 915.6 0.1 27
2017-10-27 12:00:00 23.3 7 Nordeste 30 Sudeste 0 915.9 0.8 27
2017-10-27 11:00:00 21.6 0 Calma 8 Este 0 915.9 0.9 28
2017-10-27 10:00:00 17.7 3 Noroeste 11 Noroeste 0 915.5 0.8 33
2017-10-27 09:00:00 15.4 6 Noroeste 12 Noroeste 0 915.1 0.8 33
2017-10-27 08:00:00 15.9 8 Noroeste 16 Norte 0 915 0.4 33
2017-10-27 07:00:00 16 10 Norte 17 Nordeste 0 914.7 0 34
2017-10-27 06:00:00 14.2 6 Noroeste 10 Noroeste 0 914.3 -0.6 35
2017-10-27 05:00:00 15.5 5 Sur 12 Sudeste 0 914.6 -0.8 34
2017-10-27 04:00:00 17.8 6 Norte 13 Norte 0 914.7 -0.7 31
2017-10-27 03:00:00 18.1 5 Nordeste 19 Nordeste 0 914.9 -0.6 30
2017-10-27 02:00:00 17.6 8 Norte 19 Norte 0 915.4 -0.1 31
2017-10-27 01:00:00 17.5 10 Norte 19 Norte 0 915.4 0.3 33
2017-10-27 00:00:00 17.7 4 Norte 8 Norte 0 915.5 0.6 33
2017-10-26 23:00:00 17.5 4 Nordeste 9 Nordeste 0 915.5 1.4 34
2017-10-26 22:00:00 17.6 4 Norte 10 Norte 0 915.1 1.5 34
2017-10-26 21:00:00 17.8 5 Norte 10 Noroeste 0 914.9 1.5 33
2017-10-26 20:00:00 19.1 3 Nordeste 9 Sudeste 0 914.1 0.8 32
2017-10-26 19:00:00 21.3 6 Sudeste 17 Sudeste 0 913.6 0.4 29
2017-10-26 18:00:00 23.3 5 Sudeste 21 Sudeste 0 913.4 -0.1 27
2017-10-26 17:00:00 24.1 4 Sur 13 Sudeste 0 913.3 -0.8 27
2017-10-26 16:00:00 24.2 3 Sudoeste 17 Este 0 913.2 -1.3 28
2017-10-26 15:00:00 23.1 5 Sur 13 Sudeste 0 913.5 -0.7 30
2017-10-26 14:00:00 22.3 6 Sudeste 25 Sudeste 0 914.1 0.1 30
2017-10-26 13:00:00 20.8 6 Sudeste 34 Sudeste 0 914.5 1 32
2017-10-26 12:00:00 19.5 7 Sudeste 33 Este 0 914.2 1.1 33
2017-10-26 11:00:00 18.7 5 Sudeste 13 Sudeste 0 914 1.2 35
2017-10-26 10:00:00 16.3 0 Calma 4 Oeste 0 913.5 0.9 37
2017-10-26 09:00:00 13.3 2 Norte 11 Nordeste 0 913.1 0.9 38
2017-10-26 08:00:00 13.4 2 Norte 6 Este 0 912.8 0.8 38
2017-10-26 07:00:00 13.8 5 Este 8 Este 0 912.6 0.4 37
2017-10-26 06:00:00 14.2 3 Noroeste 5 Noroeste 0 912.2 -0.1 36
2017-10-26 05:00:00 15.2 0 Calma 5 Este 0 912 -0.5 35
2017-10-26 04:00:00 15.6 3 Este 6 Este 0 912.2 -0.2 35
2017-10-26 03:00:00 15 5 Norte 6 Norte 0 912.3 -0.2 36
2017-10-26 02:00:00 15 5 Noroeste 8 Noroeste 0 912.5 0.2 35
2017-10-26 01:00:00 15.6 6 Noroeste 9 Noroeste 0 912.4 0.5 34
2017-10-26 00:00:00 16.8 6 Noroeste 10 Norte 0 912.5 0.9 33
2017-10-25 23:00:00 16.2 7 Norte 12 Noroeste 0 912.3 1.1 33
2017-10-25 22:00:00 16.5 3 Noroeste 5 Noroeste 0 911.9 1 33
2017-10-25 21:00:00 17 2 Noroeste 8 Sudoeste 0 911.6 1.1 32
2017-10-25 20:00:00 18.7 3 Sur 9 Sur 0 911.2 0.8 30
2017-10-25 19:00:00 20.8 5 Sur 11 Sudoeste 0 910.9 0.4 27
2017-10-25 18:00:00 22.3 6 Sur 15 Sur 0 910.5 -0.1 26
2017-10-25 17:00:00 22.5 6 Sudeste 23 Este 0 910.4 -1.1 26
2017-10-25 16:00:00 22.8 6 Sur 17 Sur 0 910.5 -1.3 27
2017-10-25 15:00:00 22 8 Sudeste 17 Sudeste 0 910.6 -1 29
2017-10-25 14:00:00 21.4 6 Este 27 Sudeste 0 911.5 0 30
2017-10-25 13:00:00 20.2 8 Sudeste 33 Sudeste 0 911.8 0.9 32
2017-10-25 12:00:00 19.9 6 Sudeste 26 Sudeste 0 911.6 1.4 33
2017-10-25 11:00:00 19.4 5 Sudeste 8 Sudeste 0 911.5 1.1 33
2017-10-25 10:00:00 16.4 3 Norte 10 Norte 0 910.9 0.4 37
2017-10-25 09:00:00 13.9 7 Norte 10 Norte 0 910.2 0 38
2017-10-25 08:00:00 13.1 5 Norte 6 Norte 0 910.4 0.1 38
2017-10-25 07:00:00 13.8 0 Calma 4 Este 0 910.5 -0.2 37
2017-10-25 06:00:00 14.3 0 Calma -- -- 0 910.2 -0.5 37
2017-10-25 05:00:00 14.6 0 Calma 8 Noroeste 0 910.3 -0.5 36
2017-10-25 04:00:00 14.3 5 Norte 9 Norte 0 910.7 -0.1 37
2017-10-25 03:00:00 14.2 6 Norte 11 Norte 0 910.7 -0.2 37
2017-10-25 02:00:00 14.8 7 Norte 12 Norte 0 910.8 0 37
2017-10-25 01:00:00 14.8 8 Norte 10 Norte 0 910.8 0.1 35
2017-10-25 00:00:00 15.2 6 Noroeste 9 Noroeste 0 910.9 0.4 35